TimeEST,TemperatureF,Dew PointF,Humidity,Sea Level PressureIn,VisibilityMPH,Wind Direction,Wind SpeedMPH,Gust SpeedMPH,PrecipitationIn,Events,Conditions,WindDirDegrees,DateUTC
12:17 AM,31.1,19.0,61,30.10,10.0,West,19.6,28.8,N/A,,Mostly Cloudy,270,2012-11-13 05:17:00
12:36 AM,31.8,19.9,62,30.11,10.0,West,23.0,28.8,N/A,,Mostly Cloudy,270,2012-11-13 05:36:00
12:56 AM,31.5,20.3,63,30.12,10.0,West,18.4,27.6,N/A,,Mostly Cloudy,260,2012-11-13 05:56:00
1:17 AM,31.8,19.9,62,30.12,10.0,West,18.4,27.6,N/A,,Scattered Clouds,270,2012-11-13 06:17:00
1:36 AM,31.8,20.8,64,30.13,10.0,West,20.7,27.6,N/A,,Scattered Clouds,260,2012-11-13 06:36:00
1:56 AM,31.8,21.0,64,30.13,10.0,West,17.3,29.9,N/A,,Mostly Cloudy,260,2012-11-13 06:56:00
2:17 AM,31.8,21.0,64,30.14,10.0,West,18.4,25.3,N/A,,Mostly Cloudy,260,2012-11-13 07:17:00
2:36 AM,31.6,21.7,67,30.15,10.0,West,12.7,23.0,N/A,,Scattered Clouds,270,2012-11-13 07:36:00
2:56 AM,31.8,22.3,68,30.16,10.0,West,18.4,25.3,N/A,,Mostly Cloudy,260,2012-11-13 07:56:00
3:17 AM,31.8,22.5,68,30.17,10.0,West,15.0,25.3,N/A,,Mostly Cloudy,260,2012-11-13 08:17:00
3:57 AM,31.8,22.8,69,30.18,10.0,West,17.3,23.0,N/A,,Mostly Cloudy,260,2012-11-13 08:57:00
4:17 AM,32.0,23.4,70,30.18,10.0,West,18.4,23.0,N/A,,Overcast,260,2012-11-13 09:17:00
4:36 AM,31.8,23.9,73,30.18,10.0,West,17.3,25.3,N/A,,Mostly Cloudy,260,2012-11-13 09:36:00
4:57 AM,32.4,24.8,74,30.19,10.0,West,10.4,25.3,N/A,,Overcast,270,2012-11-13 09:57:00
5:16 AM,32.4,24.3,72,30.20,10.0,West,12.7,21.9,N/A,,Mostly Cloudy,260,2012-11-13 10:16:00
5:36 AM,32.2,24.8,74,30.21,10.0,West,8.1,20.7,N/A,,Scattered Clouds,270,2012-11-13 10:36:00
5:56 AM,32.2,24.8,74,30.22,10.0,West,12.7,19.6,N/A,,Scattered Clouds,270,2012-11-13 10:56:00
6:16 AM,32.4,25.2,75,30.23,10.0,West,13.8,17.3,N/A,,Scattered Clouds,280,2012-11-13 11:16:00
6:37 AM,32.2,26.1,78,30.24,10.0,West,9.2,19.6,N/A,,Clear,280,2012-11-13 11:37:00
7:17 AM,32.9,25.9,75,30.26,10.0,West,11.5,19.6,N/A,,Scattered Clouds,280,2012-11-13 12:17:00
7:36 AM,32.9,26.2,76,30.27,10.0,West,11.5,23.0,N/A,,Scattered Clouds,280,2012-11-13 12:36:00
7:56 AM,32.7,26.2,77,30.28,10.0,West,10.4,18.4,N/A,,Scattered Clouds,280,2012-11-13 12:56:00
8:17 AM,33.1,26.2,76,30.29,10.0,West,8.1,-,N/A,,Scattered Clouds,280,2012-11-13 13:17:00
8:36 AM,33.4,26.4,75,30.30,10.0,West,9.2,16.1,N/A,,Scattered Clouds,270,2012-11-13 13:36:00
8:56 AM,34.0,26.6,74,30.31,10.0,West,10.4,-,N/A,,Scattered Clouds,270,2012-11-13 13:56:00
9:17 AM,34.3,26.6,73,30.32,10.0,West,5.8,-,N/A,,Scattered Clouds,270,2012-11-13 14:17:00
9:36 AM,34.3,27.5,76,30.33,10.0,WSW,8.1,-,N/A,,Mostly Cloudy,250,2012-11-13 14:36:00
9:56 AM,34.2,27.1,75,30.33,10.0,West,10.4,17.3,N/A,,Overcast,270,2012-11-13 14:56:00
10:17 AM,34.2,27.0,75,30.35,10.0,West,12.7,18.4,N/A,,Overcast,260,2012-11-13 15:17:00
10:36 AM,34.7,26.8,73,30.36,10.0,WSW,13.8,18.4,N/A,,Overcast,250,2012-11-13 15:36:00
10:57 AM,34.9,26.4,71,30.36,10.0,West,10.4,16.1,N/A,,Overcast,260,2012-11-13 15:57:00
11:16 AM,36.5,27.5,70,30.37,10.0,West,11.5,17.3,N/A,,Overcast,260,2012-11-13 16:16:00
11:36 AM,37.0,26.8,66,30.36,10.0,West,9.2,-,N/A,,Scattered Clouds,270,2012-11-13 16:36:00
11:57 AM,37.8,27.1,66,30.36,10.0,West,8.1,-,N/A,,Scattered Clouds,280,2012-11-13 16:57:00
12:16 PM,37.2,27.0,66,30.36,10.0,West,10.4,17.3,N/A,,Scattered Clouds,260,2012-11-13 17:16:00
12:36 PM,36.9,26.2,65,30.36,10.0,West,10.4,-,N/A,,Scattered Clouds,270,2012-11-13 17:36:00
12:57 PM,38.5,27.3,64,30.36,10.0,WSW,11.5,-,N/A,,Scattered Clouds,250,2012-11-13 17:57:00
1:16 PM,39.0,27.3,63,30.36,10.0,WSW,15.0,-,N/A,,Scattered Clouds,240,2012-11-13 18:16:00
1:56 PM,38.1,26.4,63,30.36,10.0,WSW,12.7,19.6,N/A,,Scattered Clouds,240,2012-11-13 18:56:00
2:16 PM,37.4,25.9,63,30.36,10.0,SW,12.7,18.4,N/A,,Mostly Cloudy,230,2012-11-13 19:16:00
2:36 PM,37.2,25.9,64,30.36,10.0,SW,11.5,18.4,N/A,,Mostly Cloudy,230,2012-11-13 19:36:00
2:56 PM,37.8,25.5,61,30.37,10.0,SW,13.8,19.6,N/A,,Mostly Cloudy,220,2012-11-13 19:56:00
3:16 PM,37.0,25.2,62,30.38,10.0,SSW,8.1,-,N/A,,Mostly Cloudy,210,2012-11-13 20:16:00
3:36 PM,37.4,25.5,62,30.38,10.0,SW,11.5,-,N/A,,Mostly Cloudy,220,2012-11-13 20:36:00
3:57 PM,37.4,25.3,62,30.38,10.0,SW,11.5,16.1,N/A,,Mostly Cloudy,230,2012-11-13 20:57:00
4:16 PM,36.7,25.3,64,30.38,10.0,SSW,6.9,-,N/A,,Mostly Cloudy,210,2012-11-13 21:16:00
4:36 PM,36.5,25.3,64,30.38,10.0,SSW,11.5,16.1,N/A,,Mostly Cloudy,200,2012-11-13 21:36:00
4:57 PM,36.5,25.5,64,30.39,10.0,SSW,8.1,-,N/A,,Mostly Cloudy,200,2012-11-13 21:57:00
5:16 PM,36.5,25.5,64,30.39,10.0,SSW,9.2,17.3,N/A,,Mostly Cloudy,200,2012-11-13 22:16:00
5:37 PM,36.5,25.7,65,30.40,10.0,SSW,9.2,16.1,N/A,,Mostly Cloudy,210,2012-11-13 22:37:00
5:56 PM,36.0,25.5,66,30.40,10.0,SSW,8.1,-,N/A,,Mostly Cloudy,200,2012-11-13 22:56:00
6:16 PM,36.3,25.5,65,30.41,10.0,South,9.2,16.1,N/A,,Mostly Cloudy,190,2012-11-13 23:16:00
6:37 PM,36.5,26.1,66,30.41,10.0,SSW,6.9,-,N/A,,Mostly Cloudy,200,2012-11-13 23:37:00
6:56 PM,36.5,25.9,65,30.41,10.0,South,10.4,16.1,N/A,,Overcast,190,2012-11-13 23:56:00
7:16 PM,36.7,26.2,66,30.41,10.0,South,10.4,16.1,N/A,,Overcast,190,2012-11-14 00:16:00
7:36 PM,36.9,26.4,66,30.42,10.0,SSW,6.9,-,N/A,,Overcast,200,2012-11-14 00:36:00
7:56 PM,36.7,26.1,65,30.42,10.0,SSW,9.2,-,N/A,,Overcast,200,2012-11-14 00:56:00
8:17 PM,37.0,26.4,65,30.42,10.0,South,8.1,-,N/A,,Overcast,190,2012-11-14 01:17:00
8:36 PM,36.9,26.4,66,30.42,10.0,SSW,9.2,-,N/A,,Overcast,200,2012-11-14 01:36:00
8:56 PM,37.4,26.6,65,30.42,10.0,South,6.9,-,N/A,,Overcast,180,2012-11-14 01:56:00
9:17 PM,37.4,26.6,65,30.42,10.0,South,8.1,-,N/A,,Overcast,190,2012-11-14 02:17:00
9:36 PM,37.6,27.1,66,30.42,10.0,South,6.9,-,N/A,,Overcast,180,2012-11-14 02:36:00
9:56 PM,37.8,27.3,66,30.42,10.0,South,5.8,-,N/A,,Overcast,180,2012-11-14 02:56:00
10:16 PM,37.8,27.9,67,30.42,10.0,South,6.9,-,N/A,,Overcast,190,2012-11-14 03:16:00
10:36 PM,37.8,28.4,69,30.43,10.0,SSW,6.9,-,N/A,,Overcast,200,2012-11-14 03:36:00
10:57 PM,37.9,28.9,70,30.43,10.0,SSW,6.9,-,N/A,,Overcast,200,2012-11-14 03:57:00
11:16 PM,38.5,29.3,70,30.43,10.0,South,9.2,-,N/A,,Overcast,190,2012-11-14 04:16:00
11:36 PM,38.5,29.5,70,30.43,10.0,South,8.1,-,N/A,,Mostly Cloudy,190,2012-11-14 04:36:00
11:57 PM,38.1,29.8,72,30.42,10.0,South,5.8,-,N/A,,Scattered Clouds,190,2012-11-14 04:57:00